Time;durP1;ratioP1;P1;durP2;ratioP2;P2;SDS_P1;SDS_P2;PMS_P1;PMS_P2;Temp;Humidity;BMP_temperature;BMP_pressure;BME280_temperature;BME280_humidity;BME280_pressure;Samples;Min_cycle;Max_cycle;Signal;HPM_P1;HPM_P2
2022/12/25 00:01:22;;;;;;;7.70;3.80;;;;;;;-142.25;100.00;58004.16;4967173;28;20474;-69
2022/12/25 00:03:48;;;;;;;5.93;3.50;;;;;;;-142.25;100.00;58004.16;4965655;28;20038;-68
2022/12/25 00:06:14;;;;;;;7.00;3.50;;;;;;;-142.25;100.00;58004.16;4978487;28;20237;-67
2022/12/25 00:08:41;;;;;;;6.13;3.57;;;;;;;-142.25;100.00;58004.16;4967004;28;20126;-68
2022/12/25 00:11:14;;;;;;;3.93;2.77;;;;;;;-142.25;100.00;58004.16;4968566;28;20069;-67
2022/12/25 00:13:40;;;;;;;5.83;3.20;;;;;;;-142.25;100.00;58004.16;4963760;28;20055;-69
2022/12/25 00:16:07;;;;;;;9.27;3.23;;;;;;;-142.25;100.00;58004.16;4965099;28;20046;-69
2022/12/25 00:18:33;;;;;;;4.67;2.27;;;;;;;-142.25;100.00;58004.16;4966059;28;20490;-68
2022/12/25 00:21:03;;;;;;;11.00;4.17;;;;;;;-142.25;100.00;58004.16;4980997;28;20058;-69
2022/12/25 00:23:29;;;;;;;5.93;2.80;;;;;;;-142.25;100.00;58004.16;4964703;28;20451;-73
2022/12/25 00:25:55;;;;;;;8.87;3.17;;;;;;;-142.25;100.00;58004.16;4963277;28;20046;-73
2022/12/25 00:28:22;;;;;;;9.10;4.10;;;;;;;-142.25;100.00;58004.16;4962988;28;20035;-72
2022/12/25 00:30:47;;;;;;;4.67;2.30;;;;;;;-142.25;100.00;58004.16;4966358;28;20042;-72
2022/12/25 00:33:14;;;;;;;4.53;2.70;;;;;;;-142.25;100.00;58004.16;4964722;28;20051;-71
2022/12/25 00:35:41;;;;;;;6.87;2.57;;;;;;;-142.25;100.00;58004.16;4965149;28;20093;-72
2022/12/25 00:38:07;;;;;;;7.93;2.83;;;;;;;-142.25;100.00;58004.16;4965667;28;20785;-71
2022/12/25 00:40:32;;;;;;;3.33;2.10;;;;;;;-142.25;100.00;58004.16;4966423;28;20604;-72
2022/12/25 00:42:58;;;;;;;3.57;1.77;;;;;;;-142.25;100.00;58004.16;4963933;28;20153;-71
2022/12/25 00:45:24;;;;;;;6.87;2.00;;;;;;;-142.25;100.00;58004.16;4966047;28;20054;-71
2022/12/25 00:47:49;;;;;;;6.47;2.30;;;;;;;-142.25;100.00;58004.16;4965244;28;20105;-73
2022/12/25 00:50:16;;;;;;;10.33;4.43;;;;;;;-142.25;100.00;58004.16;4965925;28;20043;-71
2022/12/25 00:52:43;;;;;;;14.13;6.93;;;;;;;-142.25;100.00;58004.16;4966075;28;20053;-72
2022/12/25 00:55:09;;;;;;;10.50;5.43;;;;;;;-142.25;100.00;58004.16;4964548;28;20048;-72
2022/12/25 00:57:34;;;;;;;11.67;6.07;;;;;;;-142.25;100.00;58004.16;4961520;28;20050;-73
2022/12/25 01:00:00;;;;;;;15.90;5.43;;;;;;;-142.25;100.00;58004.16;4957790;28;20098;-72
2022/12/25 01:02:25;;;;;;;11.67;5.73;;;;;;;-142.25;100.00;58004.16;4961992;28;20035;-71
2022/12/25 01:04:55;;;;;;;8.40;5.00;;;;;;;-142.25;100.00;58004.16;4963407;28;20054;-70
2022/12/25 01:07:23;;;;;;;9.90;5.90;;;;;;;-142.25;100.00;58004.16;4961690;28;20069;-71
2022/12/25 01:12:36;;;;;;;7.77;4.03;;;;;;;-142.25;100.00;58004.16;4963276;28;20070;-72
2022/12/25 01:15:04;;;;;;;9.97;4.13;;;;;;;-142.25;100.00;58004.16;4964781;28;20062;-73
2022/12/25 01:17:29;;;;;;;9.40;4.57;;;;;;;-142.25;100.00;58004.16;4977899;28;20057;-72
2022/12/25 01:19:55;;;;;;;6.90;3.53;;;;;;;-142.25;100.00;58004.16;4961496;28;20047;-71
2022/12/25 01:22:20;;;;;;;7.17;3.90;;;;;;;-142.25;100.00;58004.16;4964073;28;20561;-72
2022/12/25 01:24:46;;;;;;;6.83;4.03;;;;;;;-142.25;100.00;58004.16;4965395;28;20149;-72
2022/12/25 01:27:12;;;;;;;11.13;4.90;;;;;;;-142.25;100.00;58004.16;4966936;28;20050;-72
2022/12/25 01:29:38;;;;;;;5.23;3.63;;;;;;;-142.25;100.00;58004.16;4965532;28;20045;-72
2022/12/25 01:32:05;;;;;;;8.63;3.63;;;;;;;-142.25;100.00;58004.16;4964539;28;20064;-73
2022/12/25 01:34:31;;;;;;;8.73;3.53;;;;;;;-142.25;100.00;58004.16;4965317;28;20469;-73
2022/12/25 01:37:00;;;;;;;6.33;3.40;;;;;;;-142.25;100.00;58004.16;4964192;28;20043;-72
2022/12/25 01:39:26;;;;;;;8.87;3.90;;;;;;;-142.25;100.00;58004.16;4966027;28;20030;-72
2022/12/25 01:41:52;;;;;;;11.17;4.67;;;;;;;-142.25;100.00;58004.16;4962630;28;20039;-72
2022/12/25 01:44:17;;;;;;;9.20;4.93;;;;;;;-142.25;100.00;58004.16;4964047;28;20057;-70
2022/12/25 01:46:44;;;;;;;8.90;5.40;;;;;;;-142.25;100.00;58004.16;4963438;28;20050;-71
2022/12/25 01:49:21;;;;;;;12.87;5.83;;;;;;;-142.25;100.00;58004.16;4964949;28;20047;-69
2022/12/25 01:51:59;;;;;;;8.53;5.57;;;;;;;-142.25;100.00;58004.16;4965523;28;20047;-70
2022/12/25 01:54:37;;;;;;;10.57;5.13;;;;;;;-142.25;100.00;58004.16;4962219;28;20067;-71
2022/12/25 01:57:07;;;;;;;9.53;4.60;;;;;;;-142.25;100.00;58004.16;4964694;28;20118;-72
2022/12/25 01:59:33;;;;;;;12.50;5.20;;;;;;;-142.25;100.00;58004.16;4963383;28;20046;-69
2022/12/25 02:01:59;;;;;;;6.53;4.27;;;;;;;-142.25;100.00;58004.16;4962764;28;20054;-71
2022/12/25 02:04:37;;;;;;;7.10;4.17;;;;;;;-142.25;100.00;58004.16;4963503;28;20066;-70
2022/12/25 02:07:13;;;;;;;6.97;4.23;;;;;;;-142.25;100.00;58004.16;4961921;28;20043;-71
2022/12/25 02:09:39;;;;;;;9.93;4.33;;;;;;;-142.25;100.00;58004.16;4968366;28;20037;-71
2022/12/25 02:12:06;;;;;;;11.23;6.33;;;;;;;-142.25;100.00;58004.16;4963718;28;20047;-72
2022/12/25 02:14:35;;;;;;;8.97;5.63;;;;;;;-142.25;100.00;58004.16;4962341;28;20053;-73
2022/12/25 02:17:13;;;;;;;11.73;5.77;;;;;;;-142.25;100.00;58004.16;4963623;28;20175;-70
2022/12/25 02:19:54;;;;;;;11.30;5.57;;;;;;;-142.25;100.00;58004.16;4966589;28;20030;-73
2022/12/25 02:23:05;;;;;;;7.90;5.30;;;;;;;-142.25;100.00;58004.16;4963427;28;20065;-73
2022/12/25 02:25:40;;;;;;;51.87;30.80;;;;;;;-142.25;100.00;58004.16;4900440;29;20429;-70
2022/12/25 02:28:29;;;;;;;;;;;;;;;-142.25;100.00;58004.16;4906944;29;20620;-70
2022/12/25 02:31:19;;;;;;;13.03;6.20;;;;;;;-142.25;100.00;58004.16;4907218;29;19970;-71
2022/12/25 02:34:17;;;;;;;10.20;4.73;;;;;;;-142.25;100.00;58004.16;4904605;29;20053;-71
2022/12/25 02:37:00;;;;;;;5.83;4.43;;;;;;;-142.25;100.00;58004.16;4887556;29;20063;-73
2022/12/25 03:08:10;;;;;;;5.17;3.50;;;;;;;-142.25;100.00;58004.16;4946126;28;20043;-71
2022/12/25 03:13:30;;;;;;;7.13;3.83;;;;;;;-142.25;100.00;58004.16;4953512;28;20066;-70
2022/12/25 03:18:40;;;;;;;5.20;3.10;;;;;;;-142.25;100.00;58004.16;4960033;28;20046;-72
2022/12/25 03:26:53;;;;;;;8.13;2.93;;;;;;;-142.25;100.00;58004.16;4966116;28;20098;-72
2022/12/25 03:32:15;;;;;;;5.67;2.80;;;;;;;-142.25;100.00;58004.16;4963647;28;20089;-73
2022/12/25 04:36:53;;;;;;;6.93;3.10;;;;;;;-142.25;100.00;58004.16;4968224;28;20051;-72
2022/12/25 04:39:19;;;;;;;4.17;2.93;;;;;;;-142.25;100.00;58004.16;4965768;28;20470;-71
2022/12/25 04:41:44;;;;;;;6.67;3.23;;;;;;;-142.25;100.00;58004.16;4966576;28;20039;-70
2022/12/25 04:44:10;;;;;;;7.57;3.60;;;;;;;-142.25;100.00;58004.16;4967376;28;20464;-72
2022/12/25 04:46:35;;;;;;;6.27;3.70;;;;;;;-142.25;100.00;58004.16;4966042;28;20042;-72
2022/12/25 04:49:01;;;;;;;10.40;3.60;;;;;;;-142.25;100.00;58004.16;4968095;28;20061;-73
2022/12/25 04:51:27;;;;;;;6.80;3.83;;;;;;;-142.25;100.00;58004.16;4963830;28;20038;-72
2022/12/25 04:53:53;;;;;;;7.77;3.27;;;;;;;-142.25;100.00;58004.16;4963505;28;20051;-73
2022/12/25 04:56:20;;;;;;;8.73;3.23;;;;;;;-142.25;100.00;58004.16;4967780;28;20039;-73
2022/12/25 04:58:46;;;;;;;7.87;3.20;;;;;;;-142.25;100.00;58004.16;4967126;28;20062;-72
2022/12/25 05:01:12;;;;;;;6.23;3.80;;;;;;;-142.25;100.00;58004.16;4964499;28;20047;-73
2022/12/25 05:03:39;;;;;;;6.90;3.17;;;;;;;-142.25;100.00;58004.16;4961340;28;20449;-72
2022/12/25 05:06:05;;;;;;;8.63;3.10;;;;;;;-142.25;100.00;58004.16;4962766;28;20044;-72
2022/12/25 05:08:33;;;;;;;5.73;3.67;;;;;;;-142.25;100.00;58004.16;4967464;28;20046;-71
2022/12/25 05:10:59;;;;;;;5.33;3.23;;;;;;;-142.25;100.00;58004.16;4965144;28;20343;-70
2022/12/25 05:13:25;;;;;;;4.27;3.10;;;;;;;-142.25;100.00;58004.16;4962805;28;20059;-74
2022/12/25 05:15:51;;;;;;;7.07;3.00;;;;;;;-142.25;100.00;58004.16;4963716;28;20047;-72
2022/12/25 05:18:16;;;;;;;8.00;3.03;;;;;;;-142.25;100.00;58004.16;4965112;28;20485;-72
2022/12/25 05:20:42;;;;;;;9.07;3.80;;;;;;;-142.25;100.00;58004.16;4968229;28;20043;-72
2022/12/25 05:23:11;;;;;;;5.20;3.10;;;;;;;-142.25;100.00;58004.16;4962693;28;20112;-72
2022/12/25 05:25:39;;;;;;;5.73;3.13;;;;;;;-142.25;100.00;58004.16;4961412;28;20097;-73
2022/12/25 05:28:06;;;;;;;5.00;4.07;;;;;;;-142.25;100.00;58004.16;4963902;28;20049;-71
2022/12/25 05:30:32;;;;;;;12.37;3.20;;;;;;;-142.25;100.00;58004.16;4966370;28;20050;-73
2022/12/25 05:32:58;;;;;;;6.27;3.00;;;;;;;-142.25;100.00;58004.16;4965081;28;20051;-72
2022/12/25 05:35:23;;;;;;;4.60;2.90;;;;;;;-142.25;100.00;58004.16;4960914;28;20053;-71
2022/12/25 05:37:49;;;;;;;4.50;2.87;;;;;;;-142.25;100.00;58004.16;4965523;28;20480;-72
2022/12/25 05:40:15;;;;;;;6.90;4.03;;;;;;;-142.25;100.00;58004.16;4953387;28;20054;-74
2022/12/25 05:42:40;;;;;;;5.43;3.07;;;;;;;-142.25;100.00;58004.16;4960970;28;20919;-73
2022/12/25 05:45:06;;;;;;;8.57;4.57;;;;;;;-142.25;100.00;58004.16;4963915;28;20483;-72
2022/12/25 05:47:32;;;;;;;8.57;4.00;;;;;;;-142.25;100.00;58004.16;4966090;28;20053;-72
2022/12/25 05:49:58;;;;;;;6.40;4.37;;;;;;;-142.25;100.00;58004.16;4964310;28;20098;-73
2022/12/25 05:52:24;;;;;;;10.30;4.40;;;;;;;-142.25;100.00;58004.16;4963806;28;20121;-73
2022/12/25 05:54:49;;;;;;;10.37;4.17;;;;;;;-142.25;100.00;58004.16;4966579;28;20043;-73
2022/12/25 05:57:15;;;;;;;9.87;3.20;;;;;;;-142.25;100.00;58004.16;4963364;28;20053;-73
2022/12/25 05:59:41;;;;;;;6.10;3.63;;;;;;;-142.25;100.00;58004.16;4963286;28;20074;-71
2022/12/25 06:02:06;;;;;;;6.80;3.27;;;;;;;-142.25;100.00;58004.16;4963462;28;20047;-73
2022/12/25 06:04:32;;;;;;;7.30;3.43;;;;;;;-142.25;100.00;58004.16;4965968;28;20269;-72
2022/12/25 06:06:58;;;;;;;7.33;3.30;;;;;;;-142.25;100.00;58004.16;4978962;28;20034;-73
2022/12/25 06:09:23;;;;;;;8.40;4.60;;;;;;;-142.25;100.00;58004.16;4964384;28;20564;-72
2022/12/25 06:11:49;;;;;;;6.70;3.57;;;;;;;-142.25;100.00;58004.16;4965025;28;20078;-72
2022/12/25 06:14:15;;;;;;;7.47;4.30;;;;;;;-142.25;100.00;58004.16;4962576;28;20586;-72
2022/12/25 06:16:41;;;;;;;12.77;5.10;;;;;;;-142.25;100.00;58004.16;4959227;28;20465;-72
2022/12/25 06:19:07;;;;;;;8.57;4.03;;;;;;;-142.25;100.00;58004.16;4960950;28;20049;-73
2022/12/25 06:21:32;;;;;;;7.10;3.47;;;;;;;-142.25;100.00;58004.16;4964948;28;20071;-73
2022/12/25 06:23:59;;;;;;;5.67;2.80;;;;;;;-142.25;100.00;58004.16;4964120;28;20081;-72
2022/12/25 06:26:25;;;;;;;8.30;3.07;;;;;;;-142.25;100.00;58004.16;4965053;28;20038;-73
2022/12/25 06:28:51;;;;;;;5.43;2.87;;;;;;;-142.25;100.00;58004.16;4963034;28;20136;-73
2022/12/25 06:31:20;;;;;;;6.43;3.10;;;;;;;-142.25;100.00;58004.16;4966554;28;20184;-74
2022/12/25 06:33:46;;;;;;;11.63;5.17;;;;;;;-142.25;100.00;58004.16;4961321;28;20152;-73
2022/12/25 06:36:24;;;;;;;10.70;4.80;;;;;;;-142.25;100.00;58004.16;4961305;28;20506;-73
2022/12/25 06:38:51;;;;;;;11.32;5.50;;;;;;;-142.25;100.00;58004.16;4960983;28;20043;-71
2022/12/25 06:41:20;;;;;;;12.00;4.97;;;;;;;-142.25;100.00;58004.16;4960824;28;20099;-72
2022/12/25 06:43:51;;;;;;;6.23;3.17;;;;;;;-142.25;100.00;58004.16;4962166;28;20057;-73
2022/12/25 06:46:18;;;;;;;7.07;3.63;;;;;;;-142.25;100.00;58004.16;4963779;28;20042;-73
2022/12/25 06:48:48;;;;;;;5.10;3.17;;;;;;;-142.25;100.00;58004.16;4962798;28;20086;-72
2022/12/25 06:51:18;;;;;;;5.97;2.80;;;;;;;-142.25;100.00;58004.16;4961724;28;20469;-74
2022/12/25 06:53:45;;;;;;;7.80;4.07;;;;;;;-142.25;100.00;58004.16;4959495;28;20042;-74
2022/12/25 06:56:14;;;;;;;8.40;4.90;;;;;;;-142.25;100.00;58004.16;4957571;28;20039;-72
2022/12/25 06:58:51;;;;;;;6.13;3.33;;;;;;;-142.25;100.00;58004.16;4961454;28;20046;-71
2022/12/25 07:01:23;;;;;;;7.63;3.83;;;;;;;-142.25;100.00;58004.16;4963904;28;20062;-71
2022/12/25 07:03:53;;;;;;;6.80;3.20;;;;;;;-142.25;100.00;58004.16;4962803;28;20062;-72
2022/12/25 07:06:22;;;;;;;8.03;3.70;;;;;;;-142.25;100.00;58004.16;4964135;28;20054;-72
2022/12/25 07:08:47;;;;;;;9.10;3.80;;;;;;;-142.25;100.00;58004.16;4961488;28;20038;-71
2022/12/25 07:11:13;;;;;;;7.77;3.80;;;;;;;-142.25;100.00;58004.16;4963229;28;20592;-74
2022/12/25 07:13:39;;;;;;;5.13;3.87;;;;;;;-142.25;100.00;58004.16;4963941;28;20462;-67
2022/12/25 07:16:06;;;;;;;10.13;4.43;;;;;;;-142.25;100.00;58004.16;4958817;28;20472;-64
2022/12/25 07:18:33;;;;;;;11.07;6.13;;;;;;;-142.25;100.00;58004.16;4957848;28;20051;-66
2022/12/25 07:21:05;;;;;;;9.27;5.63;;;;;;;-142.25;100.00;58004.16;4958899;28;20355;-66
2022/12/25 07:23:32;;;;;;;9.90;5.27;;;;;;;-142.25;100.00;58004.16;4962188;28;20055;-67
2022/12/25 07:25:59;;;;;;;7.70;5.20;;;;;;;-142.25;100.00;58004.16;4961723;28;20051;-67
2022/12/25 07:28:25;;;;;;;9.07;4.20;;;;;;;-142.25;100.00;58004.16;4963051;28;20043;-67
2022/12/25 07:30:53;;;;;;;8.13;4.53;;;;;;;-142.25;100.00;58004.16;4976614;28;20085;-67
2022/12/25 07:33:19;;;;;;;5.17;3.80;;;;;;;-142.25;100.00;58004.16;4961113;28;20097;-67
2022/12/25 07:35:45;;;;;;;6.20;3.47;;;;;;;-142.25;100.00;58004.16;4960812;28;20045;-67
2022/12/25 07:38:11;;;;;;;4.73;2.83;;;;;;;-142.25;100.00;58004.16;4963435;28;20075;-66
2022/12/25 07:40:37;;;;;;;7.00;3.87;;;;;;;-142.25;100.00;58004.16;4960724;28;20411;-64
2022/12/25 07:43:03;;;;;;;8.27;3.60;;;;;;;-142.25;100.00;58004.16;4968242;28;20115;-68
2022/12/25 07:45:28;;;;;;;9.23;3.53;;;;;;;-142.25;100.00;58004.16;4962720;28;20046;-68
2022/12/25 07:47:54;;;;;;;5.97;3.03;;;;;;;-142.25;100.00;58004.16;4960782;28;20562;-67
2022/12/25 07:50:19;;;;;;;6.20;4.20;;;;;;;-142.25;100.00;58004.16;4953038;28;20043;-67
2022/12/25 07:52:45;;;;;;;10.07;5.93;;;;;;;-142.25;100.00;58004.16;4956536;28;20042;-67
2022/12/25 07:55:12;;;;;;;16.00;8.60;;;;;;;-142.25;100.00;58004.16;4961615;28;20051;-66
2022/12/25 07:57:37;;;;;;;13.87;8.33;;;;;;;-142.25;100.00;58004.16;4958537;28;20042;-67
2022/12/25 08:00:06;;;;;;;18.10;8.63;;;;;;;-142.25;100.00;58004.16;4962285;28;20050;-66
2022/12/25 08:02:37;;;;;;;13.97;7.30;;;;;;;-142.25;100.00;58004.16;4963146;28;20065;-66
2022/12/25 08:05:03;;;;;;;15.03;7.10;;;;;;;-142.25;100.00;58004.16;4963542;28;20070;-67
2022/12/25 08:07:28;;;;;;;12.02;6.22;;;;;;;-142.25;100.00;58004.16;4964298;28;20053;-66
2022/12/25 08:09:54;;;;;;;11.07;6.55;;;;;;;-142.25;100.00;58004.16;4962176;28;20051;-66
2022/12/25 08:12:20;;;;;;;11.18;6.00;;;;;;;-142.25;100.00;58004.16;4967305;28;20055;-66
2022/12/25 08:14:45;;;;;;;11.73;6.38;;;;;;;-142.25;100.00;58004.16;4966156;28;20039;-66
2022/12/25 08:17:11;;;;;;;14.70;6.10;;;;;;;-142.25;100.00;58004.16;4960176;28;20050;-66
2022/12/25 08:19:38;;;;;;;7.63;5.57;;;;;;;-142.25;100.00;58004.16;4963018;28;20142;-66
2022/12/25 08:22:04;;;;;;;9.90;6.18;;;;;;;-142.25;100.00;58004.16;4966157;28;20084;-67
2022/12/25 08:24:29;;;;;;;11.23;7.18;;;;;;;-142.25;100.00;58004.16;4965351;28;20991;-67
2022/12/25 08:26:56;;;;;;;15.40;6.85;;;;;;;-142.25;100.00;58004.16;4963712;28;20585;-66
2022/12/25 08:29:21;;;;;;;17.02;9.48;;;;;;;-142.25;100.00;58004.16;4965822;28;20039;-67
2022/12/25 08:31:47;;;;;;;25.30;16.92;;;;;;;-142.25;100.00;58004.16;4965385;28;20224;-67
2022/12/25 08:34:13;;;;;;;18.27;11.60;;;;;;;-142.25;100.00;58004.16;4965861;28;20082;-72
2022/12/25 08:36:40;;;;;;;23.10;12.77;;;;;;;-142.25;100.00;58004.16;4960321;28;20485;-67
2022/12/25 08:39:07;;;;;;;12.10;8.43;;;;;;;-142.25;100.00;58004.16;4964402;28;20050;-66
2022/12/25 08:41:35;;;;;;;16.15;8.93;;;;;;;-142.25;100.00;58004.16;4963654;28;20114;-67
2022/12/25 08:44:02;;;;;;;10.75;7.95;;;;;;;-142.25;100.00;58004.16;4961793;28;20047;-66
2022/12/25 08:46:28;;;;;;;10.90;6.80;;;;;;;-142.25;100.00;58004.16;4959995;28;20530;-67
2022/12/25 08:48:55;;;;;;;14.75;8.60;;;;;;;-142.25;100.00;58004.16;4963861;28;20043;-65
2022/12/25 08:51:23;;;;;;;12.52;7.65;;;;;;;-142.25;100.00;58004.16;4956283;28;20076;-67
2022/12/25 08:53:50;;;;;;;8.93;6.15;;;;;;;-142.25;100.00;58004.16;4962118;28;20549;-66
2022/12/25 08:56:17;;;;;;;8.75;5.47;;;;;;;-142.25;100.00;58004.16;4961433;28;20045;-66
2022/12/25 08:58:46;;;;;;;13.52;6.75;;;;;;;-142.25;100.00;58004.16;4961577;28;20038;-66
2022/12/25 09:01:12;;;;;;;12.68;6.35;;;;;;;-142.25;100.00;58004.16;4962540;28;20054;-65
2022/12/25 09:03:38;;;;;;;14.50;6.05;;;;;;;-142.25;100.00;58004.16;4962654;28;20042;-65
2022/12/25 09:06:06;;;;;;;15.50;7.75;;;;;;;-142.25;100.00;58004.16;4958017;28;20050;-65
2022/12/25 09:08:33;;;;;;;10.88;5.55;;;;;;;-142.25;100.00;58004.16;4961575;28;20035;-66
2022/12/25 09:11:07;;;;;;;9.20;7.25;;;;;;;-142.25;100.00;58004.16;4946652;28;20102;-65
2022/12/25 09:13:33;;;;;;;10.60;7.32;;;;;;;-142.25;100.00;58004.16;4962394;28;20070;-65
2022/12/25 09:15:59;;;;;;;8.50;5.80;;;;;;;-142.25;100.00;58004.16;4967400;28;20046;-66
2022/12/25 09:18:24;;;;;;;9.15;6.75;;;;;;;-142.25;100.00;58004.16;4964117;28;20047;-64
2022/12/25 09:21:01;;;;;;;10.52;7.75;;;;;;;-142.25;100.00;58004.16;4968500;28;20046;-65
2022/12/25 09:23:27;;;;;;;12.15;6.68;;;;;;;-142.25;100.00;58004.16;4958158;28;20046;-65
2022/12/25 09:25:54;;;;;;;7.70;5.90;;;;;;;-142.25;100.00;58004.16;4963551;28;20047;-65
2022/12/25 09:28:20;;;;;;;8.35;5.32;;;;;;;-142.25;100.00;58004.16;4965753;28;20145;-65
2022/12/25 09:30:50;;;;;;;7.30;5.18;;;;;;;-142.25;100.00;58004.16;4963491;28;20035;-65
2022/12/25 09:33:16;;;;;;;10.50;6.28;;;;;;;-142.25;100.00;58004.16;4964693;28;20526;-65
2022/12/25 09:35:41;;;;;;;9.60;5.97;;;;;;;-142.25;100.00;58004.16;4962052;28;20050;-65
2022/12/25 09:38:07;;;;;;;10.68;6.40;;;;;;;-142.25;100.00;58004.16;4961353;28;20470;-65
2022/12/25 09:40:33;;;;;;;14.30;7.03;;;;;;;-142.25;100.00;58004.16;4962279;28;20074;-65
2022/12/25 09:43:00;;;;;;;9.38;6.15;;;;;;;-142.25;100.00;58004.16;4964916;28;20082;-65
2022/12/25 09:45:32;;;;;;;8.35;5.53;;;;;;;-142.25;100.00;58004.16;4962842;28;20047;-65
2022/12/25 09:47:58;;;;;;;12.38;6.32;;;;;;;-142.25;100.00;58004.16;4961906;28;20042;-70
2022/12/25 09:50:42;;;;;;;11.68;6.03;;;;;;;-142.25;100.00;58004.16;4958216;28;20050;-66
2022/12/25 09:53:15;;;;;;;8.10;5.45;;;;;;;-142.25;100.00;58004.16;4960366;28;20346;-66
2022/12/25 09:56:05;;;;;;;7.75;4.63;;;;;;;-142.25;100.00;58004.16;4958357;28;20035;-67
2022/12/25 09:58:33;;;;;;;6.35;4.00;;;;;;;-142.25;100.00;58004.16;4960109;28;20450;-65
2022/12/25 10:01:40;;;;;;;9.25;4.82;;;;;;;-142.25;100.00;58004.16;4960221;28;20057;-65
2022/12/25 10:04:18;;;;;;;8.73;4.00;;;;;;;-142.25;100.00;58004.16;4956249;28;20464;-66
2022/12/25 10:07:06;;;;;;;7.55;4.30;;;;;;;-142.25;100.00;58004.16;4962331;28;20058;-69
2022/12/25 10:09:48;;;;;;;7.88;4.15;;;;;;;-142.25;100.00;58004.16;4959355;28;20438;-62
2022/12/25 10:12:30;;;;;;;8.93;3.60;;;;;;;-142.25;100.00;58004.16;4957033;28;20066;-67
2022/12/25 10:15:02;;;;;;;7.25;4.07;;;;;;;-142.25;100.00;58004.16;4960768;28;20201;-69
2022/12/25 10:17:52;;;;;;;7.95;4.68;;;;;;;-142.25;100.00;58004.16;4965097;28;20074;-69
2022/12/25 10:20:49;;;;;;;8.77;4.72;;;;;;;-142.25;100.00;58004.16;4963205;28;20073;-66
2022/12/25 10:23:18;;;;;;;7.22;5.18;;;;;;;-142.25;100.00;58004.16;4962818;28;20081;-70
2022/12/25 10:25:45;;;;;;;7.53;5.10;;;;;;;-142.25;100.00;58004.16;4960341;28;20071;-71
2022/12/25 10:28:13;;;;;;;11.07;5.30;;;;;;;-142.25;100.00;58004.16;4961293;28;20065;-69
2022/12/25 10:30:42;;;;;;;12.07;5.60;;;;;;;-142.25;100.00;58004.16;4964655;28;20587;-70
2022/12/25 10:33:11;;;;;;;7.40;5.28;;;;;;;-142.25;100.00;58004.16;4963710;28;20038;-70
2022/12/25 10:35:38;;;;;;;8.02;5.53;;;;;;;-142.25;100.00;58004.16;4963893;28;20047;-70
2022/12/25 10:38:16;;;;;;;8.85;5.63;;;;;;;-142.25;100.00;58004.16;4963941;28;20438;-71
2022/12/25 10:41:03;;;;;;;7.18;4.65;;;;;;;-142.25;100.00;58004.16;4968455;28;20038;-69
2022/12/25 10:43:41;;;;;;;7.47;5.32;;;;;;;-142.25;100.00;58004.16;4965497;28;20047;-71
2022/12/25 10:46:12;;;;;;;7.93;4.53;;;;;;;-142.25;100.00;58004.16;4964920;28;20534;-68
2022/12/25 10:48:48;;;;;;;11.00;5.85;;;;;;;-142.25;100.00;58004.16;4964806;28;20054;-71
2022/12/25 10:51:27;;;;;;;9.13;4.45;;;;;;;-142.25;100.00;58004.16;4961833;28;20114;-72
2022/12/25 10:53:53;;;;;;;8.60;4.20;;;;;;;-142.25;100.00;58004.16;4960351;28;20233;-69
2022/12/25 10:56:19;;;;;;;7.18;3.47;;;;;;;-142.25;100.00;58004.16;4966352;28;20125;-68
2022/12/25 10:58:44;;;;;;;7.88;4.57;;;;;;;-142.25;100.00;58004.16;4962231;28;20054;-68
2022/12/25 11:01:11;;;;;;;8.15;4.72;;;;;;;-142.25;100.00;58004.16;4961115;28;20069;-65
2022/12/25 11:03:39;;;;;;;4.72;3.17;;;;;;;-142.25;100.00;58004.16;4961804;28;20035;-65
2022/12/25 11:06:19;;;;;;;6.25;3.55;;;;;;;-142.25;100.00;58004.16;4961689;28;20043;-67
2022/12/25 11:08:52;;;;;;;5.75;2.95;;;;;;;-142.25;100.00;58004.16;4963309;28;20046;-68
2022/12/25 11:11:19;;;;;;;5.30;2.88;;;;;;;-142.25;100.00;58004.16;4962219;28;20107;-66
2022/12/25 11:13:51;;;;;;;6.53;3.63;;;;;;;-142.25;100.00;58004.16;4962594;28;20067;-69
2022/12/25 11:16:34;;;;;;;5.50;3.10;;;;;;;-142.25;100.00;58004.16;4967927;28;20078;-66
2022/12/25 11:19:00;;;;;;;4.43;2.83;;;;;;;-142.25;100.00;58004.16;4961303;28;20534;-69
2022/12/25 11:21:33;;;;;;;5.63;3.30;;;;;;;-142.25;100.00;58004.16;4964899;28;20042;-71
2022/12/25 11:24:02;;;;;;;5.13;3.22;;;;;;;-142.25;100.00;58004.16;4963671;28;20144;-70
2022/12/25 11:26:34;;;;;;;3.67;3.00;;;;;;;-142.25;100.00;58004.16;4968383;28;20035;-70
2022/12/25 11:28:59;;;;;;;4.15;3.10;;;;;;;-142.25;100.00;58004.16;4973797;28;20439;-69
2022/12/25 11:31:46;;;;;;;7.05;3.58;;;;;;;-142.25;100.00;58004.16;4958421;28;20057;-68
2022/12/25 11:34:37;;;;;;;4.07;2.85;;;;;;;-142.25;100.00;58004.16;4963292;28;20541;-68
2022/12/25 11:37:11;;;;;;;7.57;2.97;;;;;;;-142.25;100.00;58004.16;4962299;28;20185;-68
2022/12/25 11:39:40;;;;;;;3.80;2.57;;;;;;;-142.25;100.00;58004.16;4964911;28;20073;-67
2022/12/25 11:42:13;;;;;;;4.85;2.33;;;;;;;-142.25;100.00;58004.16;4968036;28;20099;-67
2022/12/25 11:45:08;;;;;;;5.82;2.70;;;;;;;-142.25;100.00;58004.16;4980196;28;20074;-67
2022/12/25 11:47:55;;;;;;;4.32;2.90;;;;;;;-142.25;100.00;58004.16;4967589;28;20494;-68
2022/12/25 11:50:29;;;;;;;4.60;3.78;;;;;;;-142.25;100.00;58004.16;4967041;28;20035;-68
2022/12/25 11:52:59;;;;;;;3.22;2.60;;;;;;;-142.25;100.00;58004.16;4965386;28;20055;-66
2022/12/25 11:55:36;;;;;;;4.43;2.80;;;;;;;-142.25;100.00;58004.16;4963014;28;20043;-65
2022/12/25 11:58:12;;;;;;;3.35;2.92;;;;;;;-142.25;100.00;58004.16;4958972;28;20058;-66
2022/12/25 12:00:40;;;;;;;5.63;3.40;;;;;;;-142.25;100.00;58004.16;4961870;28;20117;-63
2022/12/25 12:03:36;;;;;;;3.42;2.60;;;;;;;-142.25;100.00;58004.16;4964934;28;20030;-67
2022/12/25 12:06:39;;;;;;;4.55;3.15;;;;;;;-142.25;100.00;58004.16;4968202;28;20043;-71
2022/12/25 12:09:35;;;;;;;3.63;2.78;;;;;;;-142.25;100.00;58004.16;4966919;28;20045;-67
2022/12/25 12:12:09;;;;;;;;;;;;;;;-142.25;100.00;58004.16;4963307;28;20557;-70
2022/12/25 12:15:13;;;;;;;5.45;2.95;;;;;;;-142.25;100.00;58004.16;4964616;28;20073;-68
2022/12/25 12:17:39;;;;;;;5.25;2.85;;;;;;;-142.25;100.00;58004.16;4948734;28;20051;-73
2022/12/25 12:20:27;;;;;;;5.03;3.03;;;;;;;-142.25;100.00;58004.16;4957050;28;20991;-70
2022/12/25 12:22:53;;;;;;;5.95;3.35;;;;;;;-142.25;100.00;58004.16;4962715;28;20046;-71
2022/12/25 12:25:20;;;;;;;4.18;2.67;;;;;;;-142.25;100.00;58004.16;4967498;28;20043;-71
2022/12/25 12:27:53;;;;;;;4.72;3.35;;;;;;;-142.25;100.00;58004.16;4967517;28;20053;-72
2022/12/25 12:30:30;;;;;;;4.32;3.42;;;;;;;-142.25;100.00;58004.16;4967735;28;20058;-74
2022/12/25 12:33:00;;;;;;;2.65;2.35;;;;;;;-142.25;100.00;58004.16;4959541;28;20047;-73
2022/12/25 12:35:30;;;;;;;3.90;3.58;;;;;;;-142.25;100.00;58004.16;4968105;28;20073;-74
2022/12/25 12:38:05;;;;;;;4.40;3.60;;;;;;;-142.25;100.00;58004.16;4966363;28;20043;-70
2022/12/25 12:40:38;;;;;;;;;;;;;;;-142.25;100.00;58004.16;4966579;28;20457;-72
2022/12/25 12:43:21;;;;;;;6.50;3.50;;;;;;;-142.25;100.00;58004.16;4966622;28;20008;-70
2022/12/25 12:46:14;;;;;;;4.82;3.60;;;;;;;-142.25;100.00;58004.16;4965272;28;20494;-72
2022/12/25 12:48:43;;;;;;;3.60;2.88;;;;;;;-142.25;100.00;58004.16;4961983;28;20142;-70
2022/12/25 12:51:12;;;;;;;6.82;3.70;;;;;;;-142.25;100.00;58004.16;4968507;28;20259;-72
2022/12/25 12:53:42;;;;;;;5.20;4.05;;;;;;;-142.25;100.00;58004.16;4965121;28;20035;-74
2022/12/25 12:56:19;;;;;;;5.30;4.10;;;;;;;-142.25;100.00;58004.16;4960714;28;20043;-72
2022/12/25 12:58:49;;;;;;;5.85;3.58;;;;;;;-142.25;100.00;58004.16;4949891;28;20047;-75
2022/12/25 13:01:33;;;;;;;5.28;3.85;;;;;;;-142.25;100.00;58004.16;4968622;28;20443;-74
2022/12/25 13:04:19;;;;;;;7.25;4.10;;;;;;;-142.25;100.00;58004.16;4965016;28;20142;-73
2022/12/25 13:07:03;;;;;;;7.55;4.43;;;;;;;-142.25;100.00;58004.16;4969902;28;20125;-71
2022/12/25 13:10:00;;;;;;;5.63;4.63;;;;;;;-142.25;100.00;58004.16;4970754;28;20474;-70